createdAt,value
2023-05-14T00:00:55.682Z,13.20
2023-05-14T00:03:42.072Z,13.30
2023-05-14T00:06:28.789Z,13.30
2023-05-14T00:09:15.188Z,13.30
2023-05-14T00:12:01.470Z,13.40
2023-05-14T00:14:47.867Z,13.30
2023-05-14T00:17:36.076Z,13.30
2023-05-14T00:20:23.068Z,13.20
2023-05-14T00:23:10.692Z,13.20
2023-05-14T00:25:57.288Z,13.30
2023-05-14T00:28:43.700Z,13.30
2023-05-14T00:31:30.590Z,13.30
2023-05-14T00:34:18.705Z,13.10
2023-05-14T00:37:05.833Z,13.00
2023-05-14T00:39:52.617Z,12.90
2023-05-14T00:42:39.004Z,12.50
2023-05-14T00:45:25.704Z,12.50
2023-05-14T00:48:12.897Z,12.50
2023-05-14T00:51:00.814Z,12.40
2023-05-14T00:53:48.008Z,12.20
2023-05-14T00:56:35.903Z,12.20
2023-05-14T00:59:22.171Z,12.20
2023-05-14T01:02:09.094Z,12.30
2023-05-14T01:04:56.313Z,12.20
2023-05-14T01:07:55.385Z,12.30
2023-05-14T01:10:53.681Z,12.30
2023-05-14T01:13:48.451Z,12.30
2023-05-14T01:16:35.365Z,12.10
2023-05-14T01:19:30.339Z,12.10
2023-05-14T01:22:18.111Z,12.00
2023-05-14T01:25:04.841Z,12.10
2023-05-14T01:27:57.748Z,12.20
2023-05-14T01:30:50.268Z,12.30
2023-05-14T01:33:37.987Z,12.20
2023-05-14T01:36:24.835Z,12.30
2023-05-14T01:39:15.210Z,12.30
2023-05-14T01:42:03.416Z,12.30
2023-05-14T01:44:49.857Z,12.30
2023-05-14T01:47:36.712Z,12.30
2023-05-14T01:50:23.835Z,12.30
2023-05-14T01:53:10.756Z,12.30
2023-05-14T01:55:58.606Z,12.20
2023-05-14T01:58:45.425Z,12.00
2023-05-14T02:01:32.472Z,11.80
2023-05-14T02:04:20.777Z,11.70
2023-05-14T02:07:07.266Z,11.60
2023-05-14T02:09:53.837Z,11.60
2023-05-14T02:12:42.192Z,11.50
2023-05-14T02:15:28.526Z,11.50
2023-05-14T02:18:15.355Z,11.50
2023-05-14T02:21:01.815Z,11.40
2023-05-14T02:23:49.408Z,11.20
2023-05-14T02:26:36.097Z,11.10
2023-05-14T02:29:24.401Z,10.90
2023-05-14T02:32:10.888Z,11.00
2023-05-14T02:34:57.475Z,11.00
2023-05-14T02:37:44.341Z,11.00
2023-05-14T02:40:30.811Z,10.90
2023-05-14T02:43:17.186Z,11.00
2023-05-14T02:46:05.134Z,11.10
2023-05-14T02:48:51.896Z,11.20
2023-05-14T02:51:38.215Z,11.40
2023-05-14T02:54:24.699Z,11.50
2023-05-14T02:57:11.051Z,11.50
2023-05-14T02:59:57.375Z,11.50
2023-05-14T03:02:46.205Z,11.30
2023-05-14T03:05:33.337Z,11.20
2023-05-14T03:08:20.057Z,11.10
2023-05-14T03:11:06.917Z,11.10
2023-05-14T03:13:53.823Z,11.10
2023-05-14T03:16:42.285Z,11.00
2023-05-14T03:19:30.416Z,11.10
2023-05-14T03:22:16.844Z,11.10
2023-05-14T03:25:03.865Z,11.10
2023-05-14T03:27:50.142Z,11.00
2023-05-14T03:30:36.732Z,11.00
2023-05-14T03:33:23.754Z,10.90
2023-05-14T03:36:11.586Z,10.90
2023-05-14T03:38:58.140Z,10.90
2023-05-14T03:41:45.076Z,10.90
2023-05-14T03:44:32.005Z,10.90
2023-05-14T03:47:18.845Z,10.90
2023-05-14T03:50:06.496Z,11.00
2023-05-14T03:52:55.000Z,11.10
2023-05-14T03:55:41.500Z,11.00
2023-05-14T03:58:30.950Z,10.90
2023-05-14T04:01:17.482Z,10.80
2023-05-14T04:04:03.935Z,10.70
2023-05-14T04:06:50.790Z,10.80
2023-05-14T04:09:39.054Z,10.70
2023-05-14T04:12:26.722Z,10.60
2023-05-14T04:15:13.491Z,10.50
2023-05-14T04:18:00.310Z,10.60
2023-05-14T04:20:47.636Z,10.60
2023-05-14T04:23:33.966Z,10.60
2023-05-14T04:26:21.670Z,10.80
2023-05-14T04:29:08.261Z,10.80
2023-05-14T04:31:54.666Z,10.80
2023-05-14T04:34:41.876Z,10.80
2023-05-14T04:37:28.644Z,10.90
2023-05-14T04:40:16.652Z,10.80
2023-05-14T04:43:04.472Z,10.90
2023-05-14T04:45:51.636Z,10.80
2023-05-14T04:48:38.389Z,10.80
2023-05-14T04:51:24.664Z,10.80
2023-05-14T04:54:11.276Z,10.80
2023-05-14T04:56:57.848Z,11.00
2023-05-14T04:59:45.510Z,11.20
2023-05-14T05:02:32.468Z,11.20
2023-05-14T05:05:19.578Z,11.30
2023-05-14T05:08:06.275Z,11.40
2023-05-14T05:10:53.176Z,11.50
2023-05-14T05:13:39.657Z,11.70
2023-05-14T05:16:27.469Z,11.90
2023-05-14T05:19:14.131Z,12.00
2023-05-14T05:22:00.912Z,12.00
2023-05-14T05:24:49.836Z,12.20
2023-05-14T05:27:37.755Z,12.60
2023-05-14T05:30:24.586Z,13.10
2023-05-14T05:33:12.956Z,13.60
2023-05-14T05:35:59.265Z,13.70
2023-05-14T05:38:45.570Z,13.40
2023-05-14T05:41:31.959Z,13.40
2023-05-14T05:44:18.816Z,13.60
2023-05-14T05:47:05.677Z,13.70
2023-05-14T05:49:54.449Z,13.80
2023-05-14T05:52:41.110Z,13.80
2023-05-14T05:55:27.910Z,13.70
2023-05-14T05:58:17.104Z,13.70
2023-05-14T06:01:04.225Z,13.50
2023-05-14T06:03:50.847Z,13.30
2023-05-14T06:06:38.647Z,13.20
2023-05-14T06:09:25.070Z,13.30
2023-05-14T06:12:11.516Z,13.40
2023-05-14T06:14:58.363Z,13.50
2023-05-14T06:17:45.868Z,13.60
2023-05-14T06:20:32.755Z,13.80
2023-05-14T06:23:20.466Z,13.80
2023-05-14T06:26:06.878Z,14.00
2023-05-14T06:28:53.331Z,14.30
2023-05-14T06:31:40.270Z,14.40
2023-05-14T06:34:27.588Z,14.50
2023-05-14T06:37:14.686Z,14.60
2023-05-14T06:40:03.694Z,14.70
2023-05-14T06:42:50.200Z,14.90
2023-05-14T06:45:36.609Z,15.00
2023-05-14T06:48:23.226Z,15.10
2023-05-14T06:51:10.888Z,15.30
2023-05-14T06:53:57.260Z,15.60
2023-05-14T06:56:44.997Z,15.60
2023-05-14T06:59:31.385Z,16.00
2023-05-14T07:02:17.801Z,16.50
2023-05-14T07:05:04.343Z,16.40
2023-05-14T07:07:50.851Z,16.50
2023-05-14T07:10:37.652Z,16.40
2023-05-14T07:13:28.331Z,16.90
2023-05-14T07:16:15.252Z,17.70
2023-05-14T07:19:01.776Z,17.00
2023-05-14T07:21:48.632Z,16.50
2023-05-14T07:24:35.523Z,17.40
2023-05-14T07:27:21.837Z,18.70
2023-05-14T07:30:10.760Z,19.80
2023-05-14T07:32:57.377Z,20.60
2023-05-14T07:35:43.824Z,21.10
2023-05-14T07:38:31.084Z,21.60
2023-05-14T07:41:18.008Z,21.90
2023-05-14T07:44:05.043Z,22.30
2023-05-14T07:46:52.993Z,21.20
2023-05-14T07:49:39.612Z,21.40
2023-05-14T07:52:26.365Z,20.70
2023-05-14T07:55:13.851Z,20.30
2023-05-14T07:58:00.415Z,20.50
2023-05-14T08:00:47.277Z,20.70
2023-05-14T08:03:35.174Z,21.70
2023-05-14T08:06:22.786Z,22.70
2023-05-14T08:09:09.796Z,23.10
2023-05-14T08:11:56.783Z,22.40
2023-05-14T08:14:43.988Z,22.10
2023-05-14T08:17:30.759Z,22.50
2023-05-14T08:20:18.980Z,22.70
2023-05-14T08:23:05.418Z,22.30
2023-05-14T08:25:51.861Z,22.80
2023-05-14T08:28:38.359Z,23.50
2023-05-14T08:31:24.942Z,23.80
2023-05-14T08:34:11.773Z,23.40
2023-05-14T08:36:59.822Z,23.40
2023-05-14T08:39:46.309Z,23.80
2023-05-14T08:42:33.482Z,23.20
2023-05-14T08:45:21.719Z,22.70
2023-05-14T08:48:11.049Z,23.20
2023-05-14T08:50:58.487Z,24.00
2023-05-14T08:53:48.060Z,24.20
2023-05-14T08:56:34.813Z,24.60
2023-05-14T08:59:21.567Z,23.60
2023-05-14T09:02:11.093Z,23.60
2023-05-14T09:05:00.303Z,24.40
2023-05-14T09:07:47.011Z,25.10
2023-05-14T09:10:35.361Z,25.30
2023-05-14T09:13:22.078Z,25.40
2023-05-14T09:16:08.761Z,24.40
2023-05-14T09:18:55.831Z,23.60
2023-05-14T09:21:43.144Z,23.70
2023-05-14T09:24:30.223Z,23.60
2023-05-14T09:27:21.643Z,23.80
2023-05-14T09:30:10.572Z,23.60
2023-05-14T09:32:57.520Z,23.70
2023-05-14T09:35:44.355Z,23.80
2023-05-14T09:38:31.025Z,22.90
2023-05-14T09:41:17.663Z,23.80
2023-05-14T09:44:06.752Z,23.90
2023-05-14T09:46:54.486Z,24.50
2023-05-14T09:49:41.409Z,23.90
2023-05-14T09:52:28.838Z,23.90
2023-05-14T09:55:16.069Z,23.40
2023-05-14T09:58:03.100Z,22.50
2023-05-14T10:00:52.800Z,22.40
2023-05-14T10:03:39.978Z,22.30
2023-05-14T10:06:28.724Z,21.90
2023-05-14T10:09:22.071Z,21.50
2023-05-14T10:12:09.511Z,21.30
2023-05-14T10:14:58.160Z,21.00
2023-05-14T10:17:50.709Z,20.80
2023-05-14T10:20:38.750Z,20.90
2023-05-14T10:23:25.465Z,21.10
2023-05-14T10:26:12.070Z,20.90
2023-05-14T10:28:59.367Z,20.90
2023-05-14T10:31:54.616Z,20.80
2023-05-14T10:34:44.455Z,20.50
2023-05-14T10:37:31.597Z,20.40
2023-05-14T10:40:19.004Z,20.00
2023-05-14T10:43:08.614Z,19.80
2023-05-14T10:45:55.172Z,19.80
2023-05-14T10:48:43.757Z,19.60
2023-05-14T10:51:32.253Z,19.70
2023-05-14T10:54:19.145Z,19.70
2023-05-14T10:57:10.873Z,19.80
2023-05-14T10:59:59.008Z,20.20
2023-05-14T11:02:46.872Z,20.10
2023-05-14T11:05:37.105Z,20.10
2023-05-14T11:08:29.384Z,20.00
2023-05-14T11:11:19.153Z,19.90
2023-05-14T11:14:07.536Z,20.10
2023-05-14T11:16:56.367Z,20.40
2023-05-14T11:19:44.799Z,20.50
2023-05-14T11:22:31.468Z,20.70
2023-05-14T11:25:19.137Z,21.00
2023-05-14T11:28:06.487Z,21.20
2023-05-14T11:30:53.947Z,21.50
2023-05-14T11:33:42.019Z,21.30
2023-05-14T11:36:28.906Z,21.30
2023-05-14T11:39:19.839Z,21.60
2023-05-14T11:42:14.488Z,21.40
2023-05-14T11:45:01.309Z,20.90
2023-05-14T11:47:47.548Z,20.30
2023-05-14T11:50:37.536Z,20.20
2023-05-14T11:53:27.601Z,20.20
2023-05-14T11:56:14.462Z,20.50
2023-05-14T11:59:02.302Z,20.30
2023-05-14T12:01:50.759Z,20.40
2023-05-14T12:04:37.483Z,20.60
2023-05-14T12:07:24.057Z,20.40
2023-05-14T12:10:13.850Z,20.50
2023-05-14T12:13:00.383Z,20.60
2023-05-14T12:15:49.655Z,20.60
2023-05-14T12:18:36.677Z,20.70
2023-05-14T12:21:23.574Z,20.90
2023-05-14T12:24:12.554Z,21.00
2023-05-14T12:27:02.859Z,21.10
2023-05-14T12:29:49.550Z,20.60
2023-05-14T12:32:40.960Z,20.40
2023-05-14T12:35:27.730Z,20.40
2023-05-14T12:38:14.417Z,20.40
2023-05-14T12:41:01.520Z,20.40
2023-05-14T12:43:49.816Z,20.40
2023-05-14T12:46:36.248Z,20.40
2023-05-14T12:49:24.148Z,20.50
2023-05-14T12:55:01.347Z,20.50
2023-05-14T12:57:48.072Z,20.50
2023-05-14T13:00:34.647Z,20.10
2023-05-14T13:03:21.157Z,20.00
2023-05-14T13:06:09.434Z,20.00
2023-05-14T13:08:56.676Z,19.90
2023-05-14T13:11:43.332Z,19.80
2023-05-14T13:14:30.120Z,19.80
2023-05-14T13:17:16.982Z,19.90
2023-05-14T13:20:04.607Z,19.90
2023-05-14T13:22:52.248Z,19.60
2023-05-14T13:25:38.703Z,19.40
2023-05-14T13:28:25.054Z,19.30
2023-05-14T13:31:13.077Z,19.50
2023-05-14T13:33:59.633Z,19.30
2023-05-14T13:36:47.119Z,19.40
2023-05-14T13:39:34.920Z,19.20
2023-05-14T13:42:21.751Z,19.40
2023-05-14T13:45:10.013Z,19.70
2023-05-14T13:47:57.318Z,20.00
2023-05-14T13:50:43.816Z,20.00
2023-05-14T13:53:30.628Z,20.10
2023-05-14T13:56:21.979Z,20.20
2023-05-14T13:59:08.777Z,20.50
2023-05-14T14:01:55.853Z,20.70
2023-05-14T14:04:42.925Z,20.90
2023-05-14T14:07:29.597Z,21.00
2023-05-14T14:10:16.564Z,20.50
2023-05-14T14:13:04.326Z,20.40
2023-05-14T14:15:51.464Z,20.20
2023-05-14T14:18:38.222Z,20.10
2023-05-14T14:21:25.094Z,20.00
2023-05-14T14:24:11.440Z,19.40
2023-05-14T14:26:58.350Z,19.20
2023-05-14T14:29:45.913Z,19.20
2023-05-14T14:32:32.629Z,19.30
2023-05-14T14:35:20.859Z,19.50
2023-05-14T14:38:07.320Z,19.70
2023-05-14T14:40:54.234Z,19.50
2023-05-14T14:43:43.507Z,19.50
2023-05-14T14:46:31.619Z,19.70
2023-05-14T14:49:18.423Z,19.80
2023-05-14T14:52:05.258Z,19.70
2023-05-14T14:54:52.365Z,19.80
2023-05-14T14:57:38.888Z,19.80
2023-05-14T15:00:25.381Z,19.90
2023-05-14T15:03:14.989Z,20.10
2023-05-14T15:06:02.042Z,20.10
2023-05-14T15:08:48.231Z,20.30
2023-05-14T15:11:36.700Z,20.10
2023-05-14T15:14:24.199Z,19.90
2023-05-14T15:17:10.905Z,19.60
2023-05-14T15:19:58.760Z,19.40
2023-05-14T15:22:45.486Z,19.40
2023-05-14T15:25:32.244Z,19.20
2023-05-14T15:28:18.826Z,19.30
2023-05-14T15:31:06.568Z,19.10
2023-05-14T15:33:55.952Z,19.30
2023-05-14T15:36:43.854Z,19.40
2023-05-14T15:39:31.356Z,19.60
2023-05-14T15:42:17.857Z,19.80
2023-05-14T15:45:05.435Z,19.90
2023-05-14T15:47:52.315Z,20.00
2023-05-14T15:50:38.924Z,20.00
2023-05-14T15:53:26.701Z,19.90
2023-05-14T15:56:13.117Z,19.80
2023-05-14T15:58:59.620Z,19.70
2023-05-14T16:01:46.097Z,19.60
2023-05-14T16:04:32.861Z,19.60
2023-05-14T16:07:19.378Z,19.70
2023-05-14T16:10:08.740Z,19.80
2023-05-14T16:12:55.398Z,19.80
2023-05-14T16:15:41.758Z,19.80
2023-05-14T16:18:28.220Z,19.90
2023-05-14T16:21:14.599Z,19.90
2023-05-14T16:24:01.317Z,19.80
2023-05-14T16:26:49.704Z,19.40
2023-05-14T16:29:36.224Z,19.40
2023-05-14T16:32:24.851Z,19.40
2023-05-14T16:35:11.532Z,19.50
2023-05-14T16:37:58.529Z,19.50
2023-05-14T16:40:44.823Z,19.70
2023-05-14T16:43:32.852Z,19.60
2023-05-14T16:46:19.411Z,19.40
2023-05-14T16:49:06.241Z,19.50
2023-05-14T16:51:53.162Z,19.50
2023-05-14T16:54:40.047Z,19.60
2023-05-14T16:57:26.787Z,19.40
2023-05-14T17:00:15.856Z,19.20
2023-05-14T17:03:03.119Z,19.20
2023-05-14T17:05:51.290Z,19.30
2023-05-14T17:08:38.277Z,19.40
2023-05-14T17:11:25.252Z,19.60
2023-05-14T17:14:11.627Z,19.60
2023-05-14T17:16:59.857Z,19.60
2023-05-14T17:19:46.890Z,19.70
2023-05-14T17:22:33.838Z,19.60
2023-05-14T17:25:23.587Z,19.60
2023-05-14T17:28:10.646Z,19.60
2023-05-14T17:30:57.276Z,19.70
2023-05-14T17:33:45.634Z,19.70
2023-05-14T17:36:32.640Z,19.70
2023-05-14T17:39:19.337Z,19.70
2023-05-14T17:42:06.919Z,19.70
2023-05-14T17:44:53.764Z,19.60
2023-05-14T17:47:40.382Z,19.50
2023-05-14T17:50:28.788Z,19.30
2023-05-14T17:53:15.799Z,19.20
2023-05-14T17:56:02.407Z,19.00
2023-05-14T17:58:50.029Z,18.50
2023-05-14T18:01:36.723Z,18.30
2023-05-14T18:04:23.653Z,18.20
2023-05-14T18:07:11.527Z,18.00
2023-05-14T18:09:58.232Z,17.80
2023-05-14T18:12:45.214Z,17.60
2023-05-14T18:15:31.700Z,17.50
2023-05-14T18:18:18.894Z,17.40
2023-05-14T18:21:05.676Z,17.40
2023-05-14T18:23:54.253Z,17.30
2023-05-14T18:26:40.882Z,17.30
2023-05-14T18:29:27.660Z,17.20
2023-05-14T18:32:14.314Z,17.30
2023-05-14T18:35:01.263Z,17.20
2023-05-14T18:37:48.168Z,17.20
2023-05-14T18:40:36.383Z,17.20
2023-05-14T18:43:22.972Z,17.40
2023-05-14T18:46:11.078Z,17.30
2023-05-14T18:48:58.154Z,17.30
2023-05-14T18:51:44.545Z,17.30
2023-05-14T18:54:31.613Z,17.40
2023-05-14T18:57:19.615Z,17.50
2023-05-14T19:00:07.260Z,17.50
2023-05-14T19:02:54.016Z,17.40
2023-05-14T19:05:41.114Z,17.20
2023-05-14T19:08:27.826Z,17.00
2023-05-14T19:11:14.355Z,16.90
2023-05-14T19:14:02.261Z,16.80
2023-05-14T19:16:49.094Z,16.80
2023-05-14T19:19:36.503Z,16.60
2023-05-14T19:22:23.109Z,16.60
2023-05-14T19:25:11.556Z,16.40
2023-05-14T19:28:01.418Z,16.20
2023-05-14T19:30:50.791Z,16.10
2023-05-14T19:33:37.735Z,16.20
2023-05-14T19:36:24.139Z,16.20
2023-05-14T19:39:10.853Z,15.90
2023-05-14T19:41:57.671Z,15.80
2023-05-14T19:44:44.510Z,15.50
2023-05-14T19:47:32.395Z,15.20
2023-05-14T19:50:19.171Z,15.10
2023-05-14T19:53:06.089Z,14.90
2023-05-14T19:55:52.957Z,14.70
2023-05-14T19:58:39.386Z,14.50
2023-05-14T20:01:26.707Z,14.50
2023-05-14T20:04:16.196Z,14.40
2023-05-14T20:07:02.758Z,14.50
2023-05-14T20:09:49.120Z,14.20
2023-05-14T20:12:35.554Z,14.00
2023-05-14T20:15:22.409Z,13.70
2023-05-14T20:18:09.650Z,13.60
2023-05-14T20:20:58.314Z,13.50
2023-05-14T20:23:45.019Z,13.60
2023-05-14T20:26:31.343Z,13.50
2023-05-14T20:29:17.864Z,13.60
2023-05-14T20:32:04.633Z,13.70
2023-05-14T20:34:51.269Z,13.40
2023-05-14T20:37:39.580Z,13.40
2023-05-14T20:40:26.498Z,13.50
2023-05-14T20:43:13.411Z,13.50
2023-05-14T20:46:00.644Z,13.50
2023-05-14T20:48:48.167Z,13.60
2023-05-14T20:51:34.824Z,13.40
2023-05-14T20:54:22.581Z,13.50
2023-05-14T20:57:09.252Z,13.50
2023-05-14T20:59:56.106Z,13.60
2023-05-14T21:02:42.652Z,13.40
2023-05-14T21:05:29.455Z,13.20
2023-05-14T21:08:16.531Z,13.10
2023-05-14T21:11:04.425Z,13.10
2023-05-14T21:13:50.828Z,13.20
2023-05-14T21:16:37.541Z,13.30
2023-05-14T21:19:24.517Z,13.10
2023-05-14T21:22:11.098Z,13.10
2023-05-14T21:24:58.033Z,13.00
2023-05-14T21:27:45.620Z,13.20
2023-05-14T21:30:32.278Z,13.10
2023-05-14T21:33:19.051Z,13.30
2023-05-14T21:36:06.014Z,13.50
2023-05-14T21:38:53.580Z,13.70
2023-05-14T21:41:40.050Z,13.70
2023-05-14T21:44:28.422Z,13.80
2023-05-14T21:47:15.160Z,13.70
2023-05-14T21:50:01.636Z,13.70
2023-05-14T21:52:48.404Z,13.80
2023-05-14T21:55:34.689Z,13.80
2023-05-14T21:58:21.201Z,13.90
2023-05-14T22:01:11.520Z,14.00
2023-05-14T22:03:58.325Z,14.00
2023-05-14T22:06:45.394Z,14.10
2023-05-14T22:09:31.878Z,14.00
2023-05-14T22:12:18.234Z,13.80
2023-05-14T22:15:05.958Z,13.80
2023-05-14T22:17:54.027Z,13.80
2023-05-14T22:20:40.989Z,14.00
2023-05-14T22:23:27.426Z,14.00
2023-05-14T22:26:14.258Z,14.00
2023-05-14T22:29:00.746Z,14.00
2023-05-14T22:31:47.170Z,13.60
2023-05-14T22:34:35.330Z,13.40
2023-05-14T22:37:22.212Z,13.20
2023-05-14T22:40:09.990Z,13.10
2023-05-14T22:42:56.842Z,12.90
2023-05-14T22:45:43.914Z,12.90
2023-05-14T22:48:30.575Z,13.10
2023-05-14T22:51:18.385Z,13.30
2023-05-14T22:54:05.589Z,13.40
2023-05-14T22:56:52.704Z,13.20
2023-05-14T22:59:39.460Z,13.00
2023-05-14T23:02:26.271Z,12.70
2023-05-14T23:05:13.361Z,12.50
2023-05-14T23:08:01.036Z,12.30
2023-05-14T23:10:47.789Z,12.40
2023-05-14T23:13:34.749Z,12.50
2023-05-14T23:16:21.699Z,12.40
2023-05-14T23:19:08.319Z,12.60
2023-05-14T23:21:55.497Z,12.50
2023-05-14T23:24:43.598Z,12.50
2023-05-14T23:27:29.908Z,12.60
2023-05-14T23:30:17.109Z,12.60
2023-05-14T23:33:03.964Z,12.40
2023-05-14T23:35:52.088Z,12.30
2023-05-14T23:38:39.266Z,12.10
2023-05-14T23:41:27.544Z,12.10
2023-05-14T23:44:13.941Z,12.00
2023-05-14T23:47:00.578Z,12.10
2023-05-14T23:49:47.142Z,12.20
2023-05-14T23:52:34.126Z,12.20
2023-05-14T23:55:20.892Z,12.40
2023-05-14T23:58:08.897Z,12.60
